Terminal Aerodrome Forecast
Issued by NWS Twin Cities, MN

Home | Current Version | Previous Version | Graphics & Text | Print | Product List | Glossary On
Versions: 1 2 3 4 5 6 7 8 9 10 11 12 13 14 15 16 17 18 19 20 21 22 23 24 25 26 27 28 29 30
046
FTUS43 KMPX 232343
TAFMSP
TAF
KMSP 232343Z 2400/2506 17012G22KT P6SM -SHRA SCT040 OVC150
     FM240100 16011KT P6SM -SHRA BKN040 OVC120
      TEMPO 2401/2403 5SM TSRA BKN035CB OVC100
     FM240300 15007KT P6SM VCSH SCT015 OVC030
     FM240900 23005KT 6SM BR SCT007 OVC015 PROB30 2409/2412 TSRA
      SCT007 OVC015CB
     FM241500 27007KT P6SM SCT015 OVC025
     FM241800 29010KT P6SM FEW025=

USA.gov is the U.S. government's official web portal to all federal, state and local government web resources and services.